Time;durP1;ratioP1;P1;durP2;ratioP2;P2;SDS_P1;SDS_P2;PMS_P1;PMS_P2;Temp;Humidity;BMP_temperature;BMP_pressure;BME280_temperature;BME280_humidity;BME280_pressure;Samples;Min_cycle;Max_cycle;Signal;HPM_P1;HPM_P2
2022/02/26 00:00:45;;;;;;;143.90;79.50;;;;;;;-2.59;100.00;99679.61;104252;1271;1003144;-73
2022/02/26 00:03:12;;;;;;;138.20;78.90;;;;;;;-2.59;100.00;99681.88;105302;1270;61229;-73
2022/02/26 00:05:41;;;;;;;136.10;78.00;;;;;;;-2.60;100.00;99682.41;105285;1270;75455;-74
2022/02/26 00:08:07;;;;;;;137.60;78.60;;;;;;;-2.59;100.00;99681.87;105054;1271;67532;-75
2022/02/26 00:10:34;;;;;;;129.50;75.90;;;;;;;-2.58;100.00;99683.63;105281;1270;61253;-74
2022/02/26 00:13:00;;;;;;;135.40;77.70;;;;;;;-2.58;100.00;99685.36;105256;1270;61259;-75
2022/02/26 00:15:27;;;;;;;130.10;78.80;;;;;;;-2.58;100.00;99688.49;105285;1270;61274;-75
2022/02/26 00:17:54;;;;;;;128.10;76.00;;;;;;;-2.58;100.00;99692.14;105317;1270;75352;-74
2022/02/26 00:20:20;;;;;;;125.80;74.00;;;;;;;-2.59;100.00;99699.27;105269;1270;61279;-74
2022/02/26 00:22:46;;;;;;;126.80;75.60;;;;;;;-2.59;100.00;99697.53;105254;1270;61389;-74
2022/02/26 00:25:13;;;;;;;133.60;78.00;;;;;;;-2.59;100.00;99700.83;105245;1270;61289;-74
2022/02/26 00:27:39;;;;;;;127.90;74.90;;;;;;;-2.58;100.00;99701.55;105276;1270;61259;-74
2022/02/26 00:30:06;;;;;;;108.20;67.20;;;;;;;-2.58;100.00;99702.58;105310;1270;61355;-74
2022/02/26 00:32:33;;;;;;;119.20;72.80;;;;;;;-2.55;100.00;99700.83;104977;1270;69753;-74
2022/02/26 00:34:59;;;;;;;127.70;78.60;;;;;;;-2.52;100.00;99703.26;105279;1269;61153;-74
2022/02/26 00:37:26;;;;;;;129.00;77.40;;;;;;;-2.49;100.00;99703.60;105280;1270;61276;-74
2022/02/26 00:39:52;;;;;;;124.60;73.20;;;;;;;-2.47;100.00;99707.59;105313;1270;61294;-76
2022/02/26 00:42:19;;;;;;;125.00;72.40;;;;;;;-2.45;100.00;99710.02;104980;1270;61188;-74
2022/02/26 00:44:46;;;;;;;109.20;65.80;;;;;;;-2.43;100.00;99707.41;105133;1271;70390;-75
2022/02/26 00:47:12;;;;;;;104.60;61.00;;;;;;;-2.41;100.00;99709.31;105275;1270;61272;-76
2022/02/26 00:49:48;;;;;;;107.70;62.90;;;;;;;-2.38;100.00;99712.96;105249;1270;61318;-75
2022/02/26 00:52:18;;;;;;;118.50;70.30;;;;;;;-2.36;100.00;99714.00;105155;1270;174597;-74
2022/02/26 00:54:45;;;;;;;120.50;73.00;;;;;;;-2.34;100.00;99715.20;105293;1270;76952;-75
2022/02/26 00:57:12;;;;;;;111.70;68.50;;;;;;;-2.35;100.00;99716.95;105287;1270;67548;-73
2022/02/26 00:59:39;;;;;;;113.00;71.10;;;;;;;-2.35;100.00;99717.29;105295;1270;72521;-74
2022/02/26 01:02:06;;;;;;;112.90;68.20;;;;;;;-2.33;100.00;99716.77;105070;1270;61253;-74
2022/02/26 01:04:34;;;;;;;117.00;69.70;;;;;;;-2.31;100.00;99721.82;105277;1270;61914;-75
2022/02/26 01:07:00;;;;;;;115.10;66.30;;;;;;;-2.30;100.00;99719.89;105290;1270;73563;-75
2022/02/26 01:09:27;;;;;;;102.60;59.10;;;;;;;-2.29;100.00;99721.10;105326;1270;61370;-73
2022/02/26 01:11:54;;;;;;;95.90;55.60;;;;;;;-2.28;100.00;99719.89;105008;1271;73133;-73
2022/02/26 01:14:21;;;;;;;99.20;57.50;;;;;;;-2.25;100.00;99713.09;105261;1269;61244;-73
2022/02/26 01:16:48;;;;;;;102.30;58.20;;;;;;;-2.19;100.00;99712.38;105278;1270;61141;-74
2022/02/26 01:19:14;;;;;;;115.00;65.90;;;;;;;-2.17;100.00;99715.66;105270;1270;61263;-74
2022/02/26 01:21:41;;;;;;;106.10;67.00;;;;;;;-2.13;100.00;99720.00;105201;1270;70492;-74
2022/02/26 01:24:07;;;;;;;112.70;70.90;;;;;;;-2.09;100.00;99722.79;105284;1270;73253;-74
2022/02/26 01:26:34;;;;;;;114.40;68.10;;;;;;;-2.05;100.00;99723.45;105255;1269;61363;-74
2022/02/26 01:29:00;;;;;;;103.80;66.50;;;;;;;-2.00;100.00;99726.41;104578;1270;1003032;-75
2022/02/26 01:31:27;;;;;;;118.50;72.70;;;;;;;-1.98;100.00;99727.78;105309;1269;61337;-74
2022/02/26 01:33:55;;;;;;;125.00;74.10;;;;;;;-1.95;100.00;99730.20;104513;1270;1003034;-74
2022/02/26 01:36:22;;;;;;;125.50;76.00;;;;;;;-1.92;100.00;99732.63;105603;1270;74383;-75
2022/02/26 01:38:49;;;;;;;117.50;72.50;;;;;;;-1.87;100.00;99731.91;105284;1270;61342;-73
2022/02/26 01:41:15;;;;;;;112.90;71.50;;;;;;;-1.83;100.00;99735.73;105286;1270;62177;-73
2022/02/26 01:43:42;;;;;;;113.40;70.70;;;;;;;-1.81;100.00;99736.75;105301;1270;61333;-73
2022/02/26 01:46:10;;;;;;;117.80;73.20;;;;;;;-1.79;100.00;99737.10;105308;1270;61378;-75
2022/02/26 01:48:38;;;;;;;121.00;73.80;;;;;;;-1.77;100.00;99737.95;105306;1269;74422;-74
2022/02/26 01:51:06;;;;;;;126.20;79.90;;;;;;;-1.73;100.00;99735.50;105303;1270;61303;-74
2022/02/26 01:53:33;;;;;;;129.40;77.10;;;;;;;-1.71;100.00;99734.96;105300;1270;61360;-74
2022/02/26 01:56:03;;;;;;;123.40;78.10;;;;;;;-1.70;100.00;99737.74;105386;1270;75694;-73
2022/02/26 01:58:30;;;;;;;121.00;77.80;;;;;;;-1.70;100.00;99737.58;105170;1270;69837;-73
2022/02/26 02:00:56;;;;;;;141.00;84.60;;;;;;;-1.71;100.00;99736.88;105275;1269;72743;-74
2022/02/26 02:03:23;;;;;;;129.70;78.10;;;;;;;-1.73;100.00;99737.23;105256;1270;61257;-73
2022/02/26 02:05:50;;;;;;;129.50;83.10;;;;;;;-1.74;100.00;99737.58;105286;1270;61134;-74
2022/02/26 02:08:16;;;;;;;131.40;81.20;;;;;;;-1.75;100.00;99737.24;105282;1270;76263;-74
2022/02/26 02:10:43;;;;;;;125.90;78.60;;;;;;;-1.78;100.00;99736.55;105335;1269;70436;-73
2022/02/26 02:13:10;;;;;;;128.90;79.30;;;;;;;-1.83;100.00;99736.59;105283;1270;74707;-73
2022/02/26 02:15:41;;;;;;;120.00;74.80;;;;;;;-1.88;100.00;99736.27;105305;1270;61382;-73
2022/02/26 02:18:10;;;;;;;121.80;78.90;;;;;;;-1.94;100.00;99737.33;105305;1270;61812;-73
2022/02/26 02:20:38;;;;;;;133.90;79.00;;;;;;;-1.99;100.00;99738.05;105060;1271;76606;-73
2022/02/26 02:23:05;;;;;;;125.90;78.10;;;;;;;-2.05;100.00;99739.83;105319;1270;69555;-75
2022/02/26 02:25:34;;;;;;;120.70;76.30;;;;;;;-2.11;100.00;99738.11;104969;1271;61141;-74
2022/02/26 02:28:03;;;;;;;129.40;80.40;;;;;;;-2.16;100.00;99736.02;105774;1270;61311;-74
2022/02/26 02:30:31;;;;;;;129.80;81.50;;;;;;;-2.22;100.00;99736.06;105324;1268;61173;-74
2022/02/26 02:32:59;;;;;;;128.10;80.50;;;;;;;-2.29;100.00;99738.69;105580;1270;76013;-74
2022/02/26 02:35:29;;;;;;;123.10;80.40;;;;;;;-2.34;100.00;99740.45;105870;1270;67037;-74
2022/02/26 02:37:58;;;;;;;134.40;86.30;;;;;;;-2.40;100.00;99742.02;105245;1269;73171;-76
2022/02/26 02:40:25;;;;;;;143.30;88.60;;;;;;;-2.46;100.00;99744.30;105514;1270;61295;-74
2022/02/26 02:42:53;;;;;;;133.60;85.90;;;;;;;-2.50;100.00;99748.13;105256;1270;61118;-76
2022/02/26 02:45:21;;;;;;;146.00;90.80;;;;;;;-2.55;100.00;99746.59;105019;1271;75155;-76
2022/02/26 02:47:48;;;;;;;124.10;84.50;;;;;;;-2.59;100.00;99746.76;105745;1270;69229;-73
2022/02/26 02:50:16;;;;;;;128.70;83.70;;;;;;;-2.64;100.00;99749.55;105297;1270;74226;-74
2022/02/26 02:52:44;;;;;;;128.50;84.70;;;;;;;-2.69;100.00;99746.25;104767;1270;61371;-74
2022/02/26 02:55:12;;;;;;;129.20;82.40;;;;;;;-2.75;100.00;99746.79;105803;1270;61243;-74
2022/02/26 02:57:38;;;;;;;124.70;78.50;;;;;;;-2.79;100.00;99752.54;105322;1270;75398;-74
2022/02/26 03:00:27;;;;;;;128.90;80.10;;;;;;;-2.86;100.00;99756.35;105264;1271;69218;-74
2022/02/26 03:02:54;;;;;;;119.80;74.80;;;;;;;-2.92;100.00;99755.14;105231;1270;74347;-74
2022/02/26 03:05:22;;;;;;;110.70;72.10;;;;;;;-2.97;100.00;99760.01;105233;1269;61343;-73
2022/02/26 03:07:50;;;;;;;111.40;70.30;;;;;;;-3.03;100.00;99760.35;105241;1270;60607;-73
2022/02/26 03:10:17;;;;;;;120.30;74.20;;;;;;;-3.11;100.00;99763.66;105297;1270;73315;-73
2022/02/26 03:12:50;;;;;;;119.60;75.80;;;;;;;-3.15;100.00;99764.17;105350;1270;70265;-73
2022/02/26 03:15:21;;;;;;;112.80;73.10;;;;;;;-3.16;100.00;99768.00;105270;1270;73308;-73
2022/02/26 03:17:49;;;;;;;130.70;84.40;;;;;;;-3.18;100.00;99767.83;104573;1271;1003050;-75
2022/02/26 03:20:16;;;;;;;126.90;83.90;;;;;;;-3.18;100.00;99772.35;105302;1270;61247;-74
2022/02/26 03:22:43;;;;;;;130.80;84.90;;;;;;;-3.16;100.00;99775.30;105290;1270;74202;-74
2022/02/26 03:25:10;;;;;;;140.80;86.70;;;;;;;-3.14;100.00;99781.55;105288;1270;68894;-74
2022/02/26 03:27:37;;;;;;;132.50;85.00;;;;;;;-3.14;100.00;99786.77;105235;1270;74380;-74
2022/02/26 03:30:05;;;;;;;130.00;82.00;;;;;;;-3.16;100.00;99791.80;105267;1270;61559;-73
2022/02/26 03:32:32;;;;;;;129.50;82.90;;;;;;;-3.21;100.00;99791.79;105304;1270;62022;-74
2022/02/26 03:34:59;;;;;;;128.90;80.50;;;;;;;-3.25;100.00;99794.76;105277;1271;75025;-74
2022/02/26 03:37:27;;;;;;;124.60;80.10;;;;;;;-3.29;100.00;99797.87;105267;1270;61259;-75
2022/02/26 03:39:55;;;;;;;129.50;78.20;;;;;;;-3.32;100.00;99800.47;105264;1269;72754;-75
2022/02/26 03:42:22;;;;;;;114.10;77.00;;;;;;;-3.36;100.00;99802.38;105282;1270;61448;-73
2022/02/26 03:44:50;;;;;;;134.50;86.70;;;;;;;-3.40;100.00;99806.52;105375;1270;61221;-73
2022/02/26 03:47:18;;;;;;;130.90;87.80;;;;;;;-3.41;100.00;99807.92;105072;1273;73428;-73
2022/02/26 03:49:46;;;;;;;129.40;83.00;;;;;;;-3.41;100.00;99810.35;105646;1270;69352;-73
2022/02/26 03:52:13;;;;;;;117.60;78.70;;;;;;;-3.43;100.00;99814.17;105125;1274;73169;-74
2022/02/26 03:54:39;;;;;;;124.90;79.20;;;;;;;-3.47;100.00;99823.37;105356;1271;61331;-74
2022/02/26 03:57:06;;;;;;;122.80;78.60;;;;;;;-3.49;100.00;99821.10;105402;1270;61341;-74
2022/02/26 03:59:33;;;;;;;117.20;77.00;;;;;;;-3.51;100.00;99826.83;105372;1270;76198;-74
2022/02/26 04:01:59;;;;;;;113.80;75.90;;;;;;;-3.54;100.00;99827.52;105308;1270;61276;-74
2022/02/26 04:04:26;;;;;;;117.50;80.00;;;;;;;-3.56;100.00;99831.84;105326;1271;61345;-75
2022/02/26 04:06:54;;;;;;;124.20;79.40;;;;;;;-3.58;100.00;99831.15;105325;1270;61425;-72
2022/02/26 04:09:21;;;;;;;115.60;78.40;;;;;;;-3.59;100.00;99836.52;105294;1270;61253;-74
2022/02/26 04:11:48;;;;;;;124.00;82.40;;;;;;;-3.59;100.00;99837.23;105326;1269;76179;-75
2022/02/26 04:14:15;;;;;;;122.40;80.10;;;;;;;-3.57;100.00;99841.58;104575;1270;1003407;-75
2022/02/26 04:16:42;;;;;;;116.10;79.30;;;;;;;-3.55;100.00;99840.37;105296;1270;74686;-73
2022/02/26 04:19:08;;;;;;;126.00;83.70;;;;;;;-3.53;100.00;99843.32;105271;1271;61186;-74
2022/02/26 04:21:35;;;;;;;120.30;78.50;;;;;;;-3.48;100.00;99842.81;105273;1271;61295;-74
2022/02/26 04:24:02;;;;;;;125.00;78.00;;;;;;;-3.45;100.00;99844.56;105293;1271;61272;-75
2022/02/26 04:26:29;;;;;;;115.70;77.60;;;;;;;-3.44;100.00;99851.00;105338;1270;70330;-74
2022/02/26 04:28:56;;;;;;;109.60;75.10;;;;;;;-3.45;100.00;99851.00;105299;1270;61278;-74
2022/02/26 04:31:23;;;;;;;118.00;76.30;;;;;;;-3.47;100.00;99853.77;105259;1271;61326;-74
2022/02/26 04:33:51;;;;;;;114.80;79.40;;;;;;;-3.45;100.00;99854.64;105304;1270;61816;-73
2022/02/26 04:36:18;;;;;;;128.30;81.20;;;;;;;-3.43;100.00;99859.33;105265;1271;75437;-73
2022/02/26 04:38:46;;;;;;;121.30;78.40;;;;;;;-3.45;100.00;99861.08;105335;1272;70444;-73
2022/02/26 04:41:13;;;;;;;120.60;78.20;;;;;;;-3.47;100.00;99865.06;105117;1271;73208;-71
2022/02/26 04:43:43;;;;;;;121.30;77.20;;;;;;;-3.49;100.00;99866.27;105314;1272;62839;-74
2022/02/26 04:46:10;;;;;;;119.40;76.90;;;;;;;-3.52;100.00;99866.60;105037;1270;1002406;-75
2022/02/26 04:48:37;;;;;;;124.10;80.60;;;;;;;-3.53;100.00;99867.98;105409;1271;75306;-75
2022/02/26 04:51:06;;;;;;;112.40;75.70;;;;;;;-3.54;100.00;99869.88;105377;1270;69266;-76
2022/02/26 04:53:32;;;;;;;118.20;75.00;;;;;;;-3.53;100.00;99871.11;105078;1271;71343;-73
2022/02/26 04:55:59;;;;;;;117.30;77.00;;;;;;;-3.57;100.00;99874.73;105274;1270;61397;-74
2022/02/26 04:58:25;;;;;;;108.30;70.00;;;;;;;-3.61;100.00;99876.98;105273;1270;61145;-75
2022/02/26 05:00:52;;;;;;;107.40;70.60;;;;;;;-3.65;100.00;99887.22;105285;1271;75162;-75
2022/02/26 05:03:18;;;;;;;108.00;75.40;;;;;;;-3.70;100.00;99895.19;105008;1272;61265;-75
2022/02/26 05:05:45;;;;;;;121.20;79.60;;;;;;;-3.71;100.00;99900.04;105277;1271;61248;-74
2022/02/26 05:08:11;;;;;;;112.50;76.00;;;;;;;-3.68;100.00;99901.61;105267;1270;61280;-74
2022/02/26 05:10:38;;;;;;;123.60;79.10;;;;;;;-3.67;100.00;99904.05;105294;1271;61422;-74
2022/02/26 05:13:04;;;;;;;112.80;74.20;;;;;;;-3.68;100.00;99909.77;105294;1271;61266;-73
2022/02/26 05:15:31;;;;;;;121.00;78.80;;;;;;;-3.70;100.00;99913.40;105305;1271;61279;-74
2022/02/26 05:17:57;;;;;;;115.20;78.10;;;;;;;-3.73;100.00;99916.85;105312;1271;61259;-73
2022/02/26 05:20:24;;;;;;;118.40;78.30;;;;;;;-3.77;100.00;99922.23;105297;1270;61362;-74
2022/02/26 05:22:50;;;;;;;125.60;81.70;;;;;;;-3.78;100.00;99931.07;105312;1271;61251;-75
2022/02/26 05:25:17;;;;;;;134.70;86.90;;;;;;;-3.80;100.00;99932.97;105283;1271;61335;-75
2022/02/26 05:27:43;;;;;;;126.30;86.40;;;;;;;-3.80;100.00;99931.40;104548;1270;1002688;-73
2022/02/26 05:30:12;;;;;;;133.00;87.30;;;;;;;-3.78;100.00;99934.20;105257;1269;61281;-73
2022/02/26 05:32:40;;;;;;;132.50;88.60;;;;;;;-3.79;100.00;99936.27;105210;1271;61307;-73
2022/02/26 05:35:07;;;;;;;123.90;81.40;;;;;;;-3.81;100.00;99940.95;105330;1271;61159;-73
2022/02/26 05:37:33;;;;;;;121.60;83.10;;;;;;;-3.81;100.00;99942.52;105231;1271;75120;-75
2022/02/26 05:40:01;;;;;;;119.80;80.10;;;;;;;-3.81;100.00;99945.64;105272;1270;69278;-73
2022/02/26 05:42:27;;;;;;;115.60;78.50;;;;;;;-3.82;100.00;99947.54;105284;1271;74520;-73
2022/02/26 05:44:54;;;;;;;121.70;81.20;;;;;;;-3.81;100.00;99952.23;105288;1271;61346;-73
2022/02/26 05:47:20;;;;;;;115.50;76.10;;;;;;;-3.81;100.00;99951.72;105278;1271;61353;-73
2022/02/26 05:49:47;;;;;;;118.50;79.80;;;;;;;-3.81;100.00;99960.23;105285;1270;61394;-73
2022/02/26 05:52:13;;;;;;;122.90;79.50;;;;;;;-3.80;100.00;99963.00;105259;1272;70241;-75
2022/02/26 05:54:40;;;;;;;119.90;81.80;;;;;;;-3.78;100.00;99959.89;105284;1271;61344;-74
2022/02/26 05:57:09;;;;;;;118.30;79.80;;;;;;;-3.74;100.00;99958.36;105023;1274;61314;-73
2022/02/26 05:59:36;;;;;;;110.00;75.10;;;;;;;-3.69;100.00;99961.34;105315;1271;61356;-73
2022/02/26 06:02:02;;;;;;;127.80;80.80;;;;;;;-3.65;100.00;99963.63;105292;1272;75318;-74
2022/02/26 06:04:29;;;;;;;120.60;84.10;;;;;;;-3.58;100.00;99964.70;105261;1271;69517;-74
2022/02/26 06:06:56;;;;;;;120.50;85.90;;;;;;;-3.48;100.00;99962.16;105304;1271;61307;-74
2022/02/26 06:09:22;;;;;;;115.80;83.00;;;;;;;-3.38;100.00;99966.71;105292;1271;61359;-74
2022/02/26 06:11:48;;;;;;;122.50;83.40;;;;;;;-3.27;100.00;99969.91;105274;1271;61288;-74
2022/02/26 06:14:15;;;;;;;119.80;83.00;;;;;;;-3.15;100.00;99978.13;105284;1271;61365;-74
2022/02/26 06:16:41;;;;;;;115.10;79.90;;;;;;;-3.00;100.00;99981.84;105332;1269;61487;-74
2022/02/26 06:19:08;;;;;;;121.10;84.40;;;;;;;-2.83;100.00;99988.33;105252;1270;61299;-74
2022/02/26 06:21:34;;;;;;;124.00;89.40;;;;;;;-2.66;100.00;99989.41;105304;1271;61364;-74
2022/02/26 06:24:01;;;;;;;131.20;91.20;;;;;;;-2.49;100.00;99990.15;105238;1271;61243;-74
2022/02/26 06:26:28;;;;;;;117.20;87.40;;;;;;;-2.30;100.00;99994.89;105073;1271;61355;-74
2022/02/26 06:28:57;;;;;;;119.50;87.90;;;;;;;-2.10;100.00;100006.90;105149;1271;61282;-74
2022/02/26 06:31:24;;;;;;;121.80;87.90;;;;;;;-1.93;100.00;100008.66;105198;1271;74410;-74
2022/02/26 06:33:51;;;;;;;121.10;86.50;;;;;;;-1.76;100.00;100014.05;105296;1271;61269;-74
2022/02/26 06:36:17;;;;;;;127.30;91.10;;;;;;;-1.58;100.00;100021.70;105242;1271;61175;-73
2022/02/26 06:38:44;;;;;;;138.00;97.50;;;;;;;-1.46;100.00;100025.88;105340;1271;76482;-73
2022/02/26 06:41:11;;;;;;;143.50;102.90;;;;;;;-1.31;100.00;100027.23;105273;1271;69257;-74
2022/02/26 06:43:38;;;;;;;140.50;101.30;;;;;;;-1.13;100.00;100027.18;105265;1270;73232;-74
2022/02/26 06:46:06;;;;;;;146.80;98.90;;;;;;;-0.95;100.00;100029.39;105256;1271;61194;-73
2022/02/26 06:48:33;;;;;;;140.60;93.10;;;;;;;-0.79;100.00;100027.75;105313;1271;61176;-74
2022/02/26 06:50:59;;;;;;;149.20;103.30;;;;;;;-0.67;100.00;100026.30;105302;1270;76256;-74
2022/02/26 06:53:26;;;;;;;159.70;107.30;;;;;;;-0.56;100.00;100029.22;105294;1271;68119;-74
2022/02/26 06:55:53;;;;;;;153.30;105.00;;;;;;;-0.47;100.00;100037.02;105281;1271;73371;-75
2022/02/26 06:58:19;;;;;;;141.80;103.30;;;;;;;-0.41;100.00;100040.84;105261;1270;61258;-74
2022/02/26 07:00:46;;;;;;;142.30;102.00;;;;;;;-0.36;100.00;100034.88;105330;1271;61368;-74
2022/02/26 07:03:12;;;;;;;132.80;93.30;;;;;;;-0.30;100.00;100040.77;105302;1271;61291;-74
2022/02/26 07:05:38;;;;;;;126.20;90.30;;;;;;;-0.26;100.00;100040.92;105260;1271;61368;-74
2022/02/26 07:08:05;;;;;;;120.90;84.40;;;;;;;-0.22;100.00;100041.77;105277;1271;61262;-74
2022/02/26 07:10:31;;;;;;;117.70;80.70;;;;;;;-0.18;100.00;100044.71;105287;1271;61227;-73
2022/02/26 07:12:58;;;;;;;117.60;79.90;;;;;;;-0.12;100.00;100052.17;105268;1271;61426;-73
2022/02/26 07:15:24;;;;;;;119.30;82.10;;;;;;;-0.07;100.00;100055.99;105270;1271;61301;-73
2022/02/26 07:17:51;;;;;;;123.60;87.10;;;;;;;-0.04;100.00;100058.94;105279;1271;61211;-75
2022/02/26 07:20:17;;;;;;;116.50;85.30;;;;;;;-0.04;100.00;100062.77;105255;1269;61310;-74
2022/02/26 07:22:44;;;;;;;125.40;87.70;;;;;;;-0.02;100.00;100066.98;105263;1271;61294;-74
2022/02/26 07:25:10;;;;;;;133.70;92.50;;;;;;;0.04;100.00;100072.52;105254;1270;61414;-73
2022/02/26 07:27:37;;;;;;;127.10;91.20;;;;;;;0.07;100.00;100075.98;105288;1271;61371;-73
2022/02/26 07:30:05;;;;;;;131.30;89.50;;;;;;;0.12;100.00;100080.16;105294;1269;61325;-75
2022/02/26 07:32:32;;;;;;;132.50;93.20;;;;;;;0.19;100.00;100083.77;105850;1270;74420;-75
2022/02/26 07:34:59;;;;;;;118.00;86.40;;;;;;;0.27;100.00;100087.55;105331;1270;61310;-74
2022/02/26 07:37:26;;;;;;;116.80;80.60;;;;;;;0.35;100.00;100094.65;105370;1270;61338;-75
2022/02/26 07:39:54;;;;;;;109.70;74.90;;;;;;;0.40;100.00;100091.13;105335;1269;76491;-75
2022/02/26 07:42:22;;;;;;;109.70;75.90;;;;;;;0.47;100.00;100091.94;105338;1270;69188;-75
2022/02/26 07:44:48;;;;;;;101.60;72.30;;;;;;;0.58;100.00;100090.61;105323;1270;73676;-74
2022/02/26 07:47:15;;;;;;;101.10;68.90;;;;;;;0.71;100.00;100094.52;105288;1271;61147;-74
2022/02/26 07:49:41;;;;;;;93.90;65.50;;;;;;;0.86;100.00;100098.59;105339;1271;61167;-75
2022/02/26 07:52:08;;;;;;;90.60;62.60;;;;;;;1.03;100.00;100100.34;105314;1270;75275;-75
2022/02/26 07:54:34;;;;;;;90.00;61.50;;;;;;;1.12;100.00;100101.65;105056;1270;61400;-75
2022/02/26 07:57:01;;;;;;;94.60;61.20;;;;;;;1.13;100.00;100104.08;105309;1270;61256;-74
2022/02/26 07:59:27;;;;;;;91.40;61.70;;;;;;;1.15;100.00;100101.27;105294;1270;61221;-75
2022/02/26 08:01:56;;;;;;;99.50;62.90;;;;;;;1.17;100.00;100105.98;105332;1270;61395;-74
2022/02/26 08:04:22;;;;;;;112.00;66.40;;;;;;;1.20;100.00;100108.55;105336;1270;75510;-75
2022/02/26 08:06:49;;;;;;;89.30;57.30;;;;;;;1.25;100.00;100113.59;105320;1270;61388;-75
2022/02/26 08:09:15;;;;;;;96.60;58.70;;;;;;;1.28;100.00;100118.09;105271;1270;61157;-75
2022/02/26 08:11:42;;;;;;;90.10;56.70;;;;;;;1.30;100.00;100118.41;105270;1270;61424;-75
2022/02/26 08:14:08;;;;;;;85.90;53.00;;;;;;;1.32;100.00;100117.70;105316;1270;61368;-74
2022/02/26 08:16:35;;;;;;;81.60;50.30;;;;;;;1.34;100.00;100121.17;105308;1271;61348;-75
2022/02/26 08:19:01;;;;;;;77.60;48.10;;;;;;;1.41;100.00;100119.19;105306;1271;61164;-75
2022/02/26 08:21:28;;;;;;;70.50;45.80;;;;;;;1.53;100.00;100116.23;105303;1271;61317;-75
2022/02/26 08:23:55;;;;;;;69.10;44.80;;;;;;;1.72;100.00;100116.88;104993;1270;61292;-75
2022/02/26 08:26:21;;;;;;;65.40;43.30;;;;;;;1.92;100.00;100118.52;105290;1270;61186;-74
2022/02/26 08:28:47;;;;;;;69.60;45.00;;;;;;;2.13;100.00;100120.35;105263;1270;61375;-76
2022/02/26 08:31:14;;;;;;;65.80;41.40;;;;;;;2.29;100.00;100123.08;105318;1270;61376;-75
2022/02/26 08:33:41;;;;;;;63.40;39.90;;;;;;;2.41;100.00;100123.79;105276;1270;61373;-75
2022/02/26 08:36:07;;;;;;;57.30;39.80;;;;;;;2.45;100.00;100125.13;105280;1270;61272;-75
2022/02/26 08:38:34;;;;;;;59.60;38.90;;;;;;;2.49;100.00;100128.23;105304;1270;61143;-75
2022/02/26 08:41:01;;;;;;;61.20;38.60;;;;;;;2.51;100.00;100131.16;105282;1270;75664;-74
2022/02/26 08:43:28;;;;;;;59.00;38.50;;;;;;;2.53;100.00;100136.06;105204;1270;68871;-77
2022/02/26 08:45:54;;;;;;;58.00;38.60;;;;;;;2.55;100.00;100134.27;105240;1271;72622;-76
2022/02/26 08:48:21;;;;;;;58.00;37.50;;;;;;;2.57;100.00;100137.20;105393;1270;61407;-74
2022/02/26 08:50:48;;;;;;;62.40;40.00;;;;;;;2.60;100.00;100139.26;105377;1270;61240;-74
2022/02/26 08:53:14;;;;;;;58.90;38.30;;;;;;;2.64;100.00;100145.70;105354;1270;76398;-75
2022/02/26 08:55:41;;;;;;;58.00;36.50;;;;;;;2.67;100.00;100144.42;105332;1270;61359;-75
2022/02/26 08:58:08;;;;;;;52.40;34.40;;;;;;;2.69;100.00;100148.95;105268;1270;73298;-75
2022/02/26 09:00:36;;;;;;;49.40;30.20;;;;;;;2.76;100.00;100148.14;105298;1270;61152;-75
2022/02/26 09:03:02;;;;;;;46.10;28.60;;;;;;;2.80;100.00;100152.80;105302;1270;61910;-76
2022/02/26 09:05:28;;;;;;;40.10;29.00;;;;;;;2.81;100.00;100152.98;105298;1270;61269;-75
2022/02/26 09:07:55;;;;;;;42.40;27.30;;;;;;;2.84;100.00;100154.67;105271;1270;61372;-74
2022/02/26 09:10:23;;;;;;;41.50;25.90;;;;;;;2.90;100.00;100154.40;105091;1271;73441;-75
2022/02/26 09:12:50;;;;;;;40.80;26.70;;;;;;;3.00;100.00;100158.42;105285;1270;61339;-74
2022/02/26 09:15:16;;;;;;;36.60;26.30;;;;;;;3.06;100.00;100159.55;105320;1270;61872;-75
2022/02/26 09:17:43;;;;;;;38.00;25.80;;;;;;;3.15;100.00;100157.80;105288;1270;75394;-75
2022/02/26 09:20:12;;;;;;;37.00;25.00;;;;;;;3.28;100.00;100160.04;105026;1271;70353;-74
2022/02/26 09:22:40;;;;;;;33.10;24.20;;;;;;;3.40;100.00;100165.43;105279;1270;73205;-75
2022/02/26 09:25:07;;;;;;;32.60;22.70;;;;;;;3.52;100.00;100166.45;105043;1271;61367;-75
2022/02/26 09:27:35;;;;;;;33.30;23.10;;;;;;;3.61;100.00;100170.30;105128;1270;62145;-75
2022/02/26 09:30:04;;;;;;;30.80;20.20;;;;;;;3.72;100.00;100169.73;105023;1270;76124;-76
2022/02/26 09:32:31;;;;;;;28.80;19.40;;;;;;;3.84;100.00;100172.48;105325;1270;68164;-74
2022/02/26 09:34:57;;;;;;;29.70;19.60;;;;;;;3.96;100.00;100173.98;105264;1270;73194;-75
2022/02/26 09:37:24;;;;;;;27.90;18.10;;;;;;;4.06;100.00;100181.33;105309;1270;61408;-75
2022/02/26 09:39:53;;;;;;;26.00;18.00;;;;;;;4.10;100.00;100185.14;105111;1271;61470;-75
2022/02/26 09:42:23;;;;;;;35.50;21.70;;;;;;;4.11;100.00;100184.23;105489;1269;74779;-75
2022/02/26 09:44:49;;;;;;;27.10;18.70;;;;;;;4.15;100.00;100189.75;105327;1270;70363;-75
2022/02/26 09:47:16;;;;;;;27.90;18.00;;;;;;;4.11;100.00;100191.10;105180;1271;73402;-75
2022/02/26 09:49:42;;;;;;;31.50;20.20;;;;;;;4.00;100.00;100194.82;105319;1270;61257;-76
2022/02/26 09:52:09;;;;;;;30.10;19.70;;;;;;;3.90;100.00;100197.50;105300;1270;61762;-75
2022/02/26 09:54:36;;;;;;;24.30;17.10;;;;;;;3.80;100.00;100205.61;105317;1270;76302;-76
2022/02/26 09:57:03;;;;;;;25.10;18.20;;;;;;;3.72;100.00;100208.59;105304;1271;61299;-76
2022/02/26 09:59:29;;;;;;;26.20;18.60;;;;;;;3.63;100.00;100211.20;105266;1270;73404;-76
2022/02/26 10:02:08;;;;;;;24.10;18.20;;;;;;;3.55;100.00;100214.17;105319;1270;61300;-76
2022/02/26 10:04:37;;;;;;;26.20;18.40;;;;;;;3.54;100.00;100217.00;105339;1270;61393;-76
2022/02/26 10:07:13;;;;;;;27.80;17.40;;;;;;;3.54;100.00;100216.48;105278;1269;75383;-75
2022/02/26 10:09:41;;;;;;;27.60;18.50;;;;;;;3.57;100.00;100219.41;105354;1270;70517;-74
2022/02/26 10:12:20;;;;;;;29.20;19.60;;;;;;;3.58;100.00;100218.87;105271;1268;74661;-75
2022/02/26 10:14:47;;;;;;;32.70;21.30;;;;;;;3.59;100.00;100223.23;105590;1270;61282;-75
2022/02/26 10:17:31;;;;;;;30.90;22.10;;;;;;;3.61;100.00;100224.63;105290;1270;62086;-74
2022/02/26 10:20:12;;;;;;;31.10;20.90;;;;;;;3.64;100.00;100225.77;105293;1270;75241;-77
2022/02/26 10:22:57;;;;;;;31.90;20.00;;;;;;;3.68;100.00;100226.76;105903;1270;69211;-74
2022/02/26 10:25:30;;;;;;;32.00;21.30;;;;;;;3.70;99.99;100228.48;105799;1270;73346;-75
2022/02/26 10:27:58;;;;;;;31.70;22.30;;;;;;;3.82;100.00;100227.03;105104;1270;61285;-75
2022/02/26 10:30:34;;;;;;;33.70;22.50;;;;;;;4.00;100.00;100223.86;105400;1270;61224;-76
2022/02/26 10:33:23;;;;;;;32.00;22.10;;;;;;;4.15;100.00;100227.74;105358;1270;75250;-79
2022/02/26 10:35:55;;;;;;;32.60;22.60;;;;;;;4.26;99.86;100232.62;105420;1270;68669;-76
2022/02/26 10:38:27;;;;;;;33.40;22.60;;;;;;;4.35;99.56;100228.73;105420;1270;73475;-75
2022/02/26 10:41:00;;;;;;;30.90;21.10;;;;;;;4.45;99.46;100230.09;105465;1269;61349;-76
2022/02/26 10:44:01;;;;;;;31.40;21.70;;;;;;;4.53;99.14;100228.86;105905;1270;61130;-75
2022/02/26 10:46:29;;;;;;;;;;;;;;;4.54;99.03;100236.21;105482;1270;77065;-75
2022/02/26 10:48:57;;;;;;;27.90;18.90;;;;;;;4.53;99.27;100239.44;105506;1270;69477;-75
2022/02/26 10:51:29;;;;;;;34.30;21.30;;;;;;;4.49;99.58;100239.35;105368;1271;73459;-74
2022/02/26 10:53:57;;;;;;;32.00;21.50;;;;;;;4.48;99.76;100238.14;105678;1270;61299;-76
2022/02/26 10:56:32;;;;;;;30.80;19.80;;;;;;;4.49;99.88;100240.92;106109;1270;61177;-76